sensor_id;sensor_type;location;lat;lon;timestamp;P1;durP1;ratioP1;P2;durP2;ratioP2
36653;SDS011;22650;49.350;20.898;2023-07-16T00:00:07;1999.90;;;916.72;;
36653;SDS011;22650;49.350;20.898;2023-07-16T00:02:41;1999.90;;;721.90;;
36653;SDS011;22650;49.350;20.898;2023-07-16T00:05:16;1999.90;;;960.80;;
36653;SDS011;22650;49.350;20.898;2023-07-16T00:07:50;1999.90;;;934.78;;
36653;SDS011;22650;49.350;20.898;2023-07-16T00:10:24;1999.90;;;957.20;;
36653;SDS011;22650;49.350;20.898;2023-07-16T00:12:59;1999.90;;;658.97;;
36653;SDS011;22650;49.350;20.898;2023-07-16T00:15:34;1999.90;;;942.10;;
36653;SDS011;22650;49.350;20.898;2023-07-16T00:18:09;1999.90;;;999.90;;
36653;SDS011;22650;49.350;20.898;2023-07-16T00:20:43;1999.90;;;999.90;;
36653;SDS011;22650;49.350;20.898;2023-07-16T00:23:17;1999.90;;;976.05;;
36653;SDS011;22650;49.350;20.898;2023-07-16T00:25:51;1999.90;;;956.78;;
36653;SDS011;22650;49.350;20.898;2023-07-16T00:28:26;1999.90;;;995.47;;
36653;SDS011;22650;49.350;20.898;2023-07-16T00:31:00;1999.90;;;999.90;;
36653;SDS011;22650;49.350;20.898;2023-07-16T00:33:35;1999.90;;;999.88;;
36653;SDS011;22650;49.350;20.898;2023-07-16T00:36:09;1999.90;;;994.88;;
36653;SDS011;22650;49.350;20.898;2023-07-16T00:38:43;1999.90;;;999.90;;
36653;SDS011;22650;49.350;20.898;2023-07-16T00:41:18;1999.90;;;998.60;;
36653;SDS011;22650;49.350;20.898;2023-07-16T00:43:53;1999.90;;;999.90;;
36653;SDS011;22650;49.350;20.898;2023-07-16T00:46:27;1999.90;;;993.55;;
36653;SDS011;22650;49.350;20.898;2023-07-16T00:49:02;1999.90;;;999.90;;
36653;SDS011;22650;49.350;20.898;2023-07-16T00:51:36;1999.90;;;997.67;;
36653;SDS011;22650;49.350;20.898;2023-07-16T00:54:11;1999.90;;;910.97;;
36653;SDS011;22650;49.350;20.898;2023-07-16T00:56:45;1999.90;;;999.90;;
36653;SDS011;22650;49.350;20.898;2023-07-16T00:59:21;1999.90;;;992.25;;
36653;SDS011;22650;49.350;20.898;2023-07-16T01:01:55;1999.90;;;989.28;;
36653;SDS011;22650;49.350;20.898;2023-07-16T01:04:29;1999.90;;;998.85;;
36653;SDS011;22650;49.350;20.898;2023-07-16T01:07:04;1999.90;;;938.35;;
36653;SDS011;22650;49.350;20.898;2023-07-16T01:09:42;1999.90;;;940.80;;
36653;SDS011;22650;49.350;20.898;2023-07-16T01:12:17;1999.90;;;955.88;;
36653;SDS011;22650;49.350;20.898;2023-07-16T01:14:56;1999.90;;;999.90;;
36653;SDS011;22650;49.350;20.898;2023-07-16T01:17:31;1999.90;;;999.90;;
36653;SDS011;22650;49.350;20.898;2023-07-16T01:20:06;1999.90;;;999.90;;
36653;SDS011;22650;49.350;20.898;2023-07-16T01:22:55;1999.90;;;999.90;;
36653;SDS011;22650;49.350;20.898;2023-07-16T01:25:49;1999.90;;;999.90;;
36653;SDS011;22650;49.350;20.898;2023-07-16T01:28:53;1999.90;;;956.58;;
36653;SDS011;22650;49.350;20.898;2023-07-16T01:31:45;1999.90;;;999.90;;
36653;SDS011;22650;49.350;20.898;2023-07-16T01:34:23;1999.90;;;999.90;;
36653;SDS011;22650;49.350;20.898;2023-07-16T01:36:59;1999.90;;;999.90;;
36653;SDS011;22650;49.350;20.898;2023-07-16T01:39:34;1999.90;;;997.10;;
36653;SDS011;22650;49.350;20.898;2023-07-16T01:42:09;1999.90;;;999.90;;
36653;SDS011;22650;49.350;20.898;2023-07-16T01:44:46;1999.90;;;999.90;;
36653;SDS011;22650;49.350;20.898;2023-07-16T01:47:21;1999.90;;;999.90;;
36653;SDS011;22650;49.350;20.898;2023-07-16T01:50:10;1999.90;;;998.72;;
36653;SDS011;22650;49.350;20.898;2023-07-16T01:52:52;1999.90;;;999.90;;
36653;SDS011;22650;49.350;20.898;2023-07-16T01:55:30;1999.90;;;997.72;;
36653;SDS011;22650;49.350;20.898;2023-07-16T01:58:06;1999.90;;;999.90;;
36653;SDS011;22650;49.350;20.898;2023-07-16T02:00:43;1999.90;;;999.90;;
36653;SDS011;22650;49.350;20.898;2023-07-16T02:03:20;1999.90;;;999.90;;
36653;SDS011;22650;49.350;20.898;2023-07-16T02:05:57;1999.90;;;999.90;;
36653;SDS011;22650;49.350;20.898;2023-07-16T02:08:32;1999.90;;;999.90;;
36653;SDS011;22650;49.350;20.898;2023-07-16T02:11:09;1999.90;;;999.90;;
36653;SDS011;22650;49.350;20.898;2023-07-16T02:14:01;1999.90;;;999.90;;
36653;SDS011;22650;49.350;20.898;2023-07-16T02:16:38;1999.90;;;999.90;;
36653;SDS011;22650;49.350;20.898;2023-07-16T02:19:13;1999.90;;;999.90;;
36653;SDS011;22650;49.350;20.898;2023-07-16T02:21:48;1999.90;;;999.90;;
36653;SDS011;22650;49.350;20.898;2023-07-16T02:24:27;1999.90;;;999.90;;
36653;SDS011;22650;49.350;20.898;2023-07-16T02:27:02;1999.90;;;999.90;;
36653;SDS011;22650;49.350;20.898;2023-07-16T02:29:37;1999.90;;;999.90;;
36653;SDS011;22650;49.350;20.898;2023-07-16T02:32:15;1999.90;;;999.90;;
36653;SDS011;22650;49.350;20.898;2023-07-16T02:34:50;1999.90;;;999.90;;
36653;SDS011;22650;49.350;20.898;2023-07-16T02:37:25;1999.90;;;999.90;;
36653;SDS011;22650;49.350;20.898;2023-07-16T02:40:01;1999.90;;;999.90;;
36653;SDS011;22650;49.350;20.898;2023-07-16T02:42:38;1999.90;;;999.90;;
36653;SDS011;22650;49.350;20.898;2023-07-16T02:45:12;1999.90;;;999.90;;
36653;SDS011;22650;49.350;20.898;2023-07-16T02:53:21;1999.90;;;999.90;;
36653;SDS011;22650;49.350;20.898;2023-07-16T02:56:11;1999.90;;;999.90;;
36653;SDS011;22650;49.350;20.898;2023-07-16T02:58:48;1999.90;;;999.90;;
36653;SDS011;22650;49.350;20.898;2023-07-16T03:01:23;1999.90;;;999.90;;
36653;SDS011;22650;49.350;20.898;2023-07-16T03:04:00;1999.90;;;999.90;;
36653;SDS011;22650;49.350;20.898;2023-07-16T03:06:36;1999.90;;;999.90;;
36653;SDS011;22650;49.350;20.898;2023-07-16T03:12:56;1999.90;;;999.90;;
36653;SDS011;22650;49.350;20.898;2023-07-16T03:15:38;1999.90;;;999.90;;
36653;SDS011;22650;49.350;20.898;2023-07-16T03:18:27;1999.90;;;999.90;;
36653;SDS011;22650;49.350;20.898;2023-07-16T03:21:14;1999.90;;;999.90;;
36653;SDS011;22650;49.350;20.898;2023-07-16T03:24:08;1999.90;;;999.90;;
36653;SDS011;22650;49.350;20.898;2023-07-16T03:26:44;1999.90;;;999.90;;
36653;SDS011;22650;49.350;20.898;2023-07-16T03:29:21;1999.90;;;999.90;;
36653;SDS011;22650;49.350;20.898;2023-07-16T03:32:01;1999.90;;;999.90;;
36653;SDS011;22650;49.350;20.898;2023-07-16T03:34:36;1999.90;;;999.90;;
36653;SDS011;22650;49.350;20.898;2023-07-16T03:37:10;1999.90;;;999.90;;
36653;SDS011;22650;49.350;20.898;2023-07-16T03:39:45;1999.90;;;999.90;;
36653;SDS011;22650;49.350;20.898;2023-07-16T03:42:20;1999.90;;;999.90;;
36653;SDS011;22650;49.350;20.898;2023-07-16T03:44:56;1999.90;;;999.90;;
36653;SDS011;22650;49.350;20.898;2023-07-16T03:47:31;1999.90;;;999.90;;
36653;SDS011;22650;49.350;20.898;2023-07-16T03:50:07;1999.90;;;999.90;;
36653;SDS011;22650;49.350;20.898;2023-07-16T03:52:43;1999.90;;;999.90;;
36653;SDS011;22650;49.350;20.898;2023-07-16T03:55:17;1999.90;;;999.90;;
36653;SDS011;22650;49.350;20.898;2023-07-16T03:57:51;1999.90;;;999.90;;
36653;SDS011;22650;49.350;20.898;2023-07-16T04:00:27;1999.90;;;999.90;;
36653;SDS011;22650;49.350;20.898;2023-07-16T04:03:01;1999.90;;;999.90;;
36653;SDS011;22650;49.350;20.898;2023-07-16T04:05:35;1999.90;;;999.90;;
36653;SDS011;22650;49.350;20.898;2023-07-16T04:08:10;1999.90;;;999.90;;
36653;SDS011;22650;49.350;20.898;2023-07-16T04:10:45;1999.90;;;999.90;;
36653;SDS011;22650;49.350;20.898;2023-07-16T04:13:18;1999.90;;;999.90;;
36653;SDS011;22650;49.350;20.898;2023-07-16T04:15:54;1999.90;;;999.90;;
36653;SDS011;22650;49.350;20.898;2023-07-16T04:18:29;1999.90;;;999.90;;
36653;SDS011;22650;49.350;20.898;2023-07-16T04:21:03;1999.90;;;999.90;;
36653;SDS011;22650;49.350;20.898;2023-07-16T04:23:37;1999.90;;;999.90;;
36653;SDS011;22650;49.350;20.898;2023-07-16T04:26:11;1999.90;;;999.90;;
36653;SDS011;22650;49.350;20.898;2023-07-16T04:28:45;1999.90;;;999.90;;
36653;SDS011;22650;49.350;20.898;2023-07-16T04:31:21;1999.90;;;999.90;;
36653;SDS011;22650;49.350;20.898;2023-07-16T04:33:56;1999.90;;;999.90;;
36653;SDS011;22650;49.350;20.898;2023-07-16T04:36:31;1999.90;;;999.90;;
36653;SDS011;22650;49.350;20.898;2023-07-16T04:39:05;1999.90;;;999.90;;
36653;SDS011;22650;49.350;20.898;2023-07-16T04:41:38;1999.90;;;999.90;;
36653;SDS011;22650;49.350;20.898;2023-07-16T04:44:12;1999.90;;;999.90;;
36653;SDS011;22650;49.350;20.898;2023-07-16T04:46:48;1999.90;;;999.90;;
36653;SDS011;22650;49.350;20.898;2023-07-16T04:49:22;1999.90;;;999.90;;
36653;SDS011;22650;49.350;20.898;2023-07-16T04:51:57;1999.90;;;999.90;;
36653;SDS011;22650;49.350;20.898;2023-07-16T04:54:36;1999.90;;;999.90;;
36653;SDS011;22650;49.350;20.898;2023-07-16T04:57:11;1999.90;;;999.90;;
36653;SDS011;22650;49.350;20.898;2023-07-16T04:59:52;1999.90;;;999.90;;
36653;SDS011;22650;49.350;20.898;2023-07-16T05:02:32;1999.90;;;999.90;;
36653;SDS011;22650;49.350;20.898;2023-07-16T05:05:07;1999.90;;;999.90;;
36653;SDS011;22650;49.350;20.898;2023-07-16T05:07:42;1999.90;;;999.90;;
36653;SDS011;22650;49.350;20.898;2023-07-16T05:10:16;1999.90;;;997.75;;
36653;SDS011;22650;49.350;20.898;2023-07-16T05:12:51;1999.90;;;953.03;;
36653;SDS011;22650;49.350;20.898;2023-07-16T05:15:26;1999.90;;;999.90;;
36653;SDS011;22650;49.350;20.898;2023-07-16T05:18:03;1999.90;;;980.58;;
36653;SDS011;22650;49.350;20.898;2023-07-16T05:20:41;1999.90;;;996.17;;
36653;SDS011;22650;49.350;20.898;2023-07-16T05:23:16;1999.90;;;998.13;;
36653;SDS011;22650;49.350;20.898;2023-07-16T05:25:50;1999.90;;;947.70;;
36653;SDS011;22650;49.350;20.898;2023-07-16T05:28:26;1999.90;;;948.97;;
36653;SDS011;22650;49.350;20.898;2023-07-16T05:31:05;1999.90;;;940.55;;
36653;SDS011;22650;49.350;20.898;2023-07-16T05:37:23;1999.90;;;999.88;;
36653;SDS011;22650;49.350;20.898;2023-07-16T05:54:43;1999.90;;;999.90;;
36653;SDS011;22650;49.350;20.898;2023-07-16T05:57:38;1999.90;;;999.90;;
36653;SDS011;22650;49.350;20.898;2023-07-16T06:01:41;1999.90;;;999.90;;
36653;SDS011;22650;49.350;20.898;2023-07-16T06:13:06;1999.90;;;999.90;;
36653;SDS011;22650;49.350;20.898;2023-07-16T06:16:20;1999.90;;;999.90;;
36653;SDS011;22650;49.350;20.898;2023-07-16T06:19:22;1999.90;;;999.90;;
36653;SDS011;22650;49.350;20.898;2023-07-16T06:22:33;1999.90;;;999.90;;
36653;SDS011;22650;49.350;20.898;2023-07-16T06:25:11;1999.90;;;999.90;;
36653;SDS011;22650;49.350;20.898;2023-07-16T06:27:50;1999.90;;;999.90;;
36653;SDS011;22650;49.350;20.898;2023-07-16T06:30:30;1999.90;;;999.90;;
36653;SDS011;22650;49.350;20.898;2023-07-16T06:33:24;1999.90;;;709.17;;
36653;SDS011;22650;49.350;20.898;2023-07-16T06:36:02;1999.90;;;501.38;;
36653;SDS011;22650;49.350;20.898;2023-07-16T06:38:43;1999.90;;;245.18;;
36653;SDS011;22650;49.350;20.898;2023-07-16T06:41:19;1999.90;;;999.90;;
36653;SDS011;22650;49.350;20.898;2023-07-16T06:43:55;1999.90;;;999.90;;
36653;SDS011;22650;49.350;20.898;2023-07-16T06:46:31;1999.90;;;999.90;;
36653;SDS011;22650;49.350;20.898;2023-07-16T06:49:06;1999.90;;;999.90;;
36653;SDS011;22650;49.350;20.898;2023-07-16T06:51:41;1999.90;;;999.90;;
36653;SDS011;22650;49.350;20.898;2023-07-16T06:54:15;1999.90;;;999.90;;
36653;SDS011;22650;49.350;20.898;2023-07-16T06:56:51;1999.90;;;999.90;;
36653;SDS011;22650;49.350;20.898;2023-07-16T06:59:25;1999.90;;;999.90;;
36653;SDS011;22650;49.350;20.898;2023-07-16T07:01:59;1999.90;;;999.90;;
36653;SDS011;22650;49.350;20.898;2023-07-16T07:04:32;1999.90;;;999.90;;
36653;SDS011;22650;49.350;20.898;2023-07-16T07:07:06;1999.90;;;999.90;;
36653;SDS011;22650;49.350;20.898;2023-07-16T07:09:40;1999.90;;;999.90;;
36653;SDS011;22650;49.350;20.898;2023-07-16T07:12:15;1999.90;;;999.90;;
36653;SDS011;22650;49.350;20.898;2023-07-16T07:14:49;1999.90;;;999.90;;
36653;SDS011;22650;49.350;20.898;2023-07-16T07:17:22;1999.90;;;999.90;;
36653;SDS011;22650;49.350;20.898;2023-07-16T07:19:56;1999.90;;;999.90;;
36653;SDS011;22650;49.350;20.898;2023-07-16T07:22:30;1999.90;;;999.90;;
36653;SDS011;22650;49.350;20.898;2023-07-16T07:25:05;1999.90;;;999.90;;
36653;SDS011;22650;49.350;20.898;2023-07-16T07:27:40;1999.90;;;999.90;;
36653;SDS011;22650;49.350;20.898;2023-07-16T07:30:14;1999.90;;;999.90;;
36653;SDS011;22650;49.350;20.898;2023-07-16T07:32:48;1999.90;;;999.90;;
36653;SDS011;22650;49.350;20.898;2023-07-16T07:35:21;1999.90;;;635.58;;
36653;SDS011;22650;49.350;20.898;2023-07-16T07:37:55;1999.90;;;999.90;;
36653;SDS011;22650;49.350;20.898;2023-07-16T07:40:29;1999.90;;;799.80;;
36653;SDS011;22650;49.350;20.898;2023-07-16T07:43:04;1999.90;;;742.35;;
36653;SDS011;22650;49.350;20.898;2023-07-16T07:45:38;1999.90;;;999.90;;
36653;SDS011;22650;49.350;20.898;2023-07-16T07:48:11;1999.90;;;999.90;;
36653;SDS011;22650;49.350;20.898;2023-07-16T07:50:46;1999.90;;;999.90;;
36653;SDS011;22650;49.350;20.898;2023-07-16T07:53:23;1999.90;;;999.90;;
36653;SDS011;22650;49.350;20.898;2023-07-16T07:55:57;1999.90;;;652.95;;
36653;SDS011;22650;49.350;20.898;2023-07-16T07:58:32;1999.90;;;788.90;;
36653;SDS011;22650;49.350;20.898;2023-07-16T08:01:06;1999.90;;;999.90;;
36653;SDS011;22650;49.350;20.898;2023-07-16T08:03:40;1999.90;;;919.10;;
36653;SDS011;22650;49.350;20.898;2023-07-16T08:06:15;1999.90;;;999.90;;
36653;SDS011;22650;49.350;20.898;2023-07-16T08:08:49;1999.90;;;999.90;;
36653;SDS011;22650;49.350;20.898;2023-07-16T08:11:23;1999.90;;;828.17;;
36653;SDS011;22650;49.350;20.898;2023-07-16T08:13:58;1999.90;;;999.90;;
36653;SDS011;22650;49.350;20.898;2023-07-16T08:16:32;1999.90;;;999.90;;
36653;SDS011;22650;49.350;20.898;2023-07-16T08:19:05;1999.90;;;999.90;;
36653;SDS011;22650;49.350;20.898;2023-07-16T08:21:39;1999.90;;;999.90;;
36653;SDS011;22650;49.350;20.898;2023-07-16T08:24:13;1999.90;;;999.90;;
36653;SDS011;22650;49.350;20.898;2023-07-16T08:26:56;1999.90;;;999.90;;
36653;SDS011;22650;49.350;20.898;2023-07-16T08:33:36;1999.90;;;999.90;;
36653;SDS011;22650;49.350;20.898;2023-07-16T08:37:19;1999.90;;;999.90;;
36653;SDS011;22650;49.350;20.898;2023-07-16T08:40:18;1999.90;;;999.90;;
36653;SDS011;22650;49.350;20.898;2023-07-16T08:43:10;1999.90;;;999.90;;
36653;SDS011;22650;49.350;20.898;2023-07-16T08:46:17;1999.90;;;999.90;;
36653;SDS011;22650;49.350;20.898;2023-07-16T08:49:34;1999.90;;;999.90;;
36653;SDS011;22650;49.350;20.898;2023-07-16T09:17:03;1953.30;;;991.90;;
36653;SDS011;22650;49.350;20.898;2023-07-16T09:20:49;1999.90;;;999.90;;
36653;SDS011;22650;49.350;20.898;2023-07-16T09:26:56;1797.78;;;987.20;;
36653;SDS011;22650;49.350;20.898;2023-07-16T09:32:40;1999.90;;;999.90;;
36653;SDS011;22650;49.350;20.898;2023-07-16T09:35:44;1507.32;;;908.35;;
36653;SDS011;22650;49.350;20.898;2023-07-16T09:38:32;1999.90;;;999.90;;
36653;SDS011;22650;49.350;20.898;2023-07-16T09:41:16;1165.22;;;868.13;;
36653;SDS011;22650;49.350;20.898;2023-07-16T09:49:06;1999.90;;;984.22;;
36653;SDS011;22650;49.350;20.898;2023-07-16T09:51:50;1999.90;;;999.90;;
36653;SDS011;22650;49.350;20.898;2023-07-16T09:58:16;679.75;;;615.92;;
36653;SDS011;22650;49.350;20.898;2023-07-16T10:00:59;1047.28;;;735.70;;
36653;SDS011;22650;49.350;20.898;2023-07-16T10:03:51;843.30;;;757.92;;
36653;SDS011;22650;49.350;20.898;2023-07-16T10:06:32;758.10;;;686.40;;
36653;SDS011;22650;49.350;20.898;2023-07-16T10:28:01;962.08;;;851.65;;
36653;SDS011;22650;49.350;20.898;2023-07-16T10:40:01;602.50;;;543.92;;
36653;SDS011;22650;49.350;20.898;2023-07-16T10:42:46;374.98;;;349.00;;
36653;SDS011;22650;49.350;20.898;2023-07-16T10:45:41;322.75;;;302.67;;
36653;SDS011;22650;49.350;20.898;2023-07-16T10:48:27;334.85;;;313.05;;
36653;SDS011;22650;49.350;20.898;2023-07-16T10:51:25;246.38;;;230.98;;
36653;SDS011;22650;49.350;20.898;2023-07-16T10:54:08;351.30;;;325.90;;
36653;SDS011;22650;49.350;20.898;2023-07-16T10:56:41;380.77;;;350.20;;
36653;SDS011;22650;49.350;20.898;2023-07-16T10:59:16;279.23;;;262.70;;
36653;SDS011;22650;49.350;20.898;2023-07-16T11:01:53;459.10;;;423.23;;
36653;SDS011;22650;49.350;20.898;2023-07-16T11:04:34;229.32;;;213.70;;
36653;SDS011;22650;49.350;20.898;2023-07-16T11:07:09;179.35;;;168.07;;
36653;SDS011;22650;49.350;20.898;2023-07-16T11:09:45;370.13;;;342.00;;
36653;SDS011;22650;49.350;20.898;2023-07-16T11:12:34;510.45;;;467.88;;
36653;SDS011;22650;49.350;20.898;2023-07-16T11:15:11;449.92;;;415.23;;
36653;SDS011;22650;49.350;20.898;2023-07-16T11:17:49;178.23;;;166.40;;
36653;SDS011;22650;49.350;20.898;2023-07-16T11:20:32;150.38;;;140.88;;
36653;SDS011;22650;49.350;20.898;2023-07-16T11:23:06;157.13;;;147.20;;
36653;SDS011;22650;49.350;20.898;2023-07-16T11:30:40;239.77;;;224.35;;
36653;SDS011;22650;49.350;20.898;2023-07-16T11:33:18;245.85;;;224.00;;
36653;SDS011;22650;49.350;20.898;2023-07-16T11:35:54;587.92;;;537.25;;
36653;SDS011;22650;49.350;20.898;2023-07-16T11:38:28;199.48;;;186.73;;
36653;SDS011;22650;49.350;20.898;2023-07-16T11:41:03;167.73;;;157.35;;
36653;SDS011;22650;49.350;20.898;2023-07-16T11:43:37;150.05;;;140.02;;
36653;SDS011;22650;49.350;20.898;2023-07-16T11:46:14;217.52;;;203.65;;
36653;SDS011;22650;49.350;20.898;2023-07-16T11:48:58;296.33;;;277.50;;
36653;SDS011;22650;49.350;20.898;2023-07-16T11:51:33;237.45;;;222.27;;
36653;SDS011;22650;49.350;20.898;2023-07-16T11:54:07;205.02;;;192.30;;
36653;SDS011;22650;49.350;20.898;2023-07-16T11:56:44;293.60;;;275.33;;
36653;SDS011;22650;49.350;20.898;2023-07-16T11:59:26;253.45;;;238.02;;
36653;SDS011;22650;49.350;20.898;2023-07-16T12:02:00;762.75;;;686.47;;
36653;SDS011;22650;49.350;20.898;2023-07-16T12:41:56;333.83;;;312.15;;
36653;SDS011;22650;49.350;20.898;2023-07-16T12:44:30;223.82;;;208.80;;
36653;SDS011;22650;49.350;20.898;2023-07-16T12:47:17;155.82;;;146.23;;
36653;SDS011;22650;49.350;20.898;2023-07-16T12:50:21;56.78;;;54.00;;
36653;SDS011;22650;49.350;20.898;2023-07-16T12:52:57;121.13;;;113.88;;
36653;SDS011;22650;49.350;20.898;2023-07-16T12:55:31;139.07;;;130.77;;
36653;SDS011;22650;49.350;20.898;2023-07-16T12:58:07;186.32;;;174.65;;
36653;SDS011;22650;49.350;20.898;2023-07-16T13:00:42;533.10;;;489.80;;
36653;SDS011;22650;49.350;20.898;2023-07-16T13:03:17;288.92;;;270.17;;
36653;SDS011;22650;49.350;20.898;2023-07-16T13:05:57;533.08;;;484.70;;
36653;SDS011;22650;49.350;20.898;2023-07-16T13:08:32;284.40;;;266.30;;
36653;SDS011;22650;49.350;20.898;2023-07-16T13:11:09;536.35;;;492.13;;
36653;SDS011;22650;49.350;20.898;2023-07-16T13:26:28;699.55;;;635.35;;
36653;SDS011;22650;49.350;20.898;2023-07-16T13:29:03;963.35;;;829.63;;
36653;SDS011;22650;49.350;20.898;2023-07-16T13:31:37;772.30;;;697.72;;
36653;SDS011;22650;49.350;20.898;2023-07-16T13:34:11;720.50;;;652.35;;
36653;SDS011;22650;49.350;20.898;2023-07-16T13:36:45;906.15;;;799.78;;
36653;SDS011;22650;49.350;20.898;2023-07-16T13:39:22;1148.90;;;905.35;;
36653;SDS011;22650;49.350;20.898;2023-07-16T13:41:57;633.75;;;578.55;;
36653;SDS011;22650;49.350;20.898;2023-07-16T13:44:48;1446.50;;;950.92;;
36653;SDS011;22650;49.350;20.898;2023-07-16T13:47:21;1916.20;;;996.60;;
36653;SDS011;22650;49.350;20.898;2023-07-16T13:49:59;1597.00;;;945.28;;
36653;SDS011;22650;49.350;20.898;2023-07-16T13:52:33;1752.07;;;998.45;;
36653;SDS011;22650;49.350;20.898;2023-07-16T13:55:08;1999.90;;;999.90;;
36653;SDS011;22650;49.350;20.898;2023-07-16T13:57:43;1909.85;;;999.42;;
36653;SDS011;22650;49.350;20.898;2023-07-16T14:00:17;1999.90;;;999.90;;
36653;SDS011;22650;49.350;20.898;2023-07-16T14:02:51;1758.93;;;972.30;;
36653;SDS011;22650;49.350;20.898;2023-07-16T14:05:26;1999.90;;;999.90;;
36653;SDS011;22650;49.350;20.898;2023-07-16T14:08:00;1999.90;;;999.90;;
36653;SDS011;22650;49.350;20.898;2023-07-16T14:10:36;1843.85;;;992.03;;
36653;SDS011;22650;49.350;20.898;2023-07-16T14:13:10;1863.35;;;995.20;;
36653;SDS011;22650;49.350;20.898;2023-07-16T14:15:44;1929.07;;;999.88;;
36653;SDS011;22650;49.350;20.898;2023-07-16T14:18:19;1999.90;;;999.90;;
36653;SDS011;22650;49.350;20.898;2023-07-16T14:20:53;1999.90;;;999.90;;
36653;SDS011;22650;49.350;20.898;2023-07-16T14:23:27;1999.90;;;999.90;;
36653;SDS011;22650;49.350;20.898;2023-07-16T14:26:02;1999.90;;;999.90;;
36653;SDS011;22650;49.350;20.898;2023-07-16T14:28:36;1999.90;;;999.90;;
36653;SDS011;22650;49.350;20.898;2023-07-16T14:31:10;1999.90;;;999.90;;
36653;SDS011;22650;49.350;20.898;2023-07-16T14:33:44;989.47;;;818.25;;
36653;SDS011;22650;49.350;20.898;2023-07-16T14:36:18;1999.90;;;999.90;;
36653;SDS011;22650;49.350;20.898;2023-07-16T14:38:53;1999.90;;;999.90;;
36653;SDS011;22650;49.350;20.898;2023-07-16T14:41:29;1999.90;;;999.90;;
36653;SDS011;22650;49.350;20.898;2023-07-16T14:44:03;1999.90;;;999.90;;
36653;SDS011;22650;49.350;20.898;2023-07-16T14:46:37;1999.90;;;999.90;;
36653;SDS011;22650;49.350;20.898;2023-07-16T14:49:11;1522.68;;;946.83;;
36653;SDS011;22650;49.350;20.898;2023-07-16T14:51:45;894.35;;;797.60;;
36653;SDS011;22650;49.350;20.898;2023-07-16T14:54:19;1937.22;;;988.63;;
36653;SDS011;22650;49.350;20.898;2023-07-16T14:56:54;902.58;;;784.80;;
36653;SDS011;22650;49.350;20.898;2023-07-16T14:59:28;836.58;;;753.15;;
36653;SDS011;22650;49.350;20.898;2023-07-16T15:02:02;1042.95;;;828.92;;
36653;SDS011;22650;49.350;20.898;2023-07-16T15:04:36;1174.35;;;863.40;;
36653;SDS011;22650;49.350;20.898;2023-07-16T15:07:11;1999.90;;;999.90;;
36653;SDS011;22650;49.350;20.898;2023-07-16T15:09:45;1999.90;;;999.90;;
36653;SDS011;22650;49.350;20.898;2023-07-16T15:12:20;1999.90;;;999.90;;
36653;SDS011;22650;49.350;20.898;2023-07-16T15:14:54;1999.90;;;999.90;;
36653;SDS011;22650;49.350;20.898;2023-07-16T15:17:28;1999.90;;;999.90;;
36653;SDS011;22650;49.350;20.898;2023-07-16T15:20:02;1999.90;;;999.90;;
36653;SDS011;22650;49.350;20.898;2023-07-16T15:22:36;1999.90;;;999.90;;
36653;SDS011;22650;49.350;20.898;2023-07-16T15:25:10;1999.90;;;999.90;;
36653;SDS011;22650;49.350;20.898;2023-07-16T15:27:45;1999.90;;;999.90;;
36653;SDS011;22650;49.350;20.898;2023-07-16T15:30:19;1999.90;;;999.90;;
36653;SDS011;22650;49.350;20.898;2023-07-16T15:32:53;1999.90;;;999.90;;
36653;SDS011;22650;49.350;20.898;2023-07-16T15:54:23;1999.90;;;999.90;;
36653;SDS011;22650;49.350;20.898;2023-07-16T15:56:58;1999.90;;;999.90;;
36653;SDS011;22650;49.350;20.898;2023-07-16T15:59:32;1999.90;;;999.90;;
36653;SDS011;22650;49.350;20.898;2023-07-16T16:02:08;1999.90;;;999.90;;
36653;SDS011;22650;49.350;20.898;2023-07-16T16:04:44;1999.90;;;999.90;;
36653;SDS011;22650;49.350;20.898;2023-07-16T16:07:19;1999.90;;;999.90;;
36653;SDS011;22650;49.350;20.898;2023-07-16T16:09:54;1999.90;;;999.90;;
36653;SDS011;22650;49.350;20.898;2023-07-16T16:12:29;1999.90;;;999.90;;
36653;SDS011;22650;49.350;20.898;2023-07-16T16:15:03;1999.90;;;999.90;;
36653;SDS011;22650;49.350;20.898;2023-07-16T16:17:38;1999.90;;;999.90;;
36653;SDS011;22650;49.350;20.898;2023-07-16T16:20:16;1999.90;;;999.90;;
36653;SDS011;22650;49.350;20.898;2023-07-16T16:22:50;1999.90;;;999.90;;
36653;SDS011;22650;49.350;20.898;2023-07-16T16:25:28;1999.90;;;999.90;;
36653;SDS011;22650;49.350;20.898;2023-07-16T16:28:04;1999.90;;;999.90;;
36653;SDS011;22650;49.350;20.898;2023-07-16T16:30:40;1999.90;;;999.90;;
36653;SDS011;22650;49.350;20.898;2023-07-16T16:33:14;1999.90;;;999.90;;
36653;SDS011;22650;49.350;20.898;2023-07-16T16:35:49;1999.90;;;999.90;;
36653;SDS011;22650;49.350;20.898;2023-07-16T16:38:22;1999.90;;;999.90;;
36653;SDS011;22650;49.350;20.898;2023-07-16T16:41:02;1999.90;;;999.90;;
36653;SDS011;22650;49.350;20.898;2023-07-16T16:43:40;1999.90;;;999.90;;
36653;SDS011;22650;49.350;20.898;2023-07-16T16:46:14;1999.90;;;999.90;;
36653;SDS011;22650;49.350;20.898;2023-07-16T16:48:49;1999.90;;;999.90;;
36653;SDS011;22650;49.350;20.898;2023-07-16T16:51:23;1999.90;;;999.90;;
36653;SDS011;22650;49.350;20.898;2023-07-16T16:53:57;1999.90;;;999.90;;
36653;SDS011;22650;49.350;20.898;2023-07-16T16:56:32;1999.90;;;999.90;;
36653;SDS011;22650;49.350;20.898;2023-07-16T16:59:06;1999.90;;;999.90;;
36653;SDS011;22650;49.350;20.898;2023-07-16T17:01:40;1999.90;;;999.90;;
36653;SDS011;22650;49.350;20.898;2023-07-16T17:38:22;1999.90;;;999.90;;
36653;SDS011;22650;49.350;20.898;2023-07-16T17:43:51;1999.90;;;999.90;;
36653;SDS011;22650;49.350;20.898;2023-07-16T17:46:26;1999.90;;;999.90;;
36653;SDS011;22650;49.350;20.898;2023-07-16T17:49:00;1999.90;;;999.90;;
36653;SDS011;22650;49.350;20.898;2023-07-16T17:51:36;1999.90;;;999.90;;
36653;SDS011;22650;49.350;20.898;2023-07-16T17:54:13;1999.90;;;999.90;;
36653;SDS011;22650;49.350;20.898;2023-07-16T17:56:49;1999.90;;;999.90;;
36653;SDS011;22650;49.350;20.898;2023-07-16T17:59:25;1999.90;;;999.90;;
36653;SDS011;22650;49.350;20.898;2023-07-16T18:02:08;1999.90;;;999.90;;
36653;SDS011;22650;49.350;20.898;2023-07-16T18:04:44;1999.90;;;999.90;;
36653;SDS011;22650;49.350;20.898;2023-07-16T18:07:21;1999.90;;;999.90;;
36653;SDS011;22650;49.350;20.898;2023-07-16T18:09:59;1999.90;;;999.90;;
36653;SDS011;22650;49.350;20.898;2023-07-16T18:12:39;1999.90;;;999.90;;